sensor_id;sensor_type;location;lat;lon;timestamp;P1;durP1;ratioP1;P2;durP2;ratioP2
84082;SDS011;74174;52.224;6.878;2023-12-22T00:02:08;10.38;;;1.00;;
84082;SDS011;74174;52.224;6.878;2023-12-22T00:04:34;16.63;;;1.75;;
84082;SDS011;74174;52.224;6.878;2023-12-22T00:06:59;16.38;;;2.35;;
84082;SDS011;74174;52.224;6.878;2023-12-22T00:09:24;9.30;;;1.80;;
84082;SDS011;74174;52.224;6.878;2023-12-22T00:11:50;12.85;;;1.15;;
84082;SDS011;74174;52.224;6.878;2023-12-22T00:14:15;16.42;;;1.30;;
84082;SDS011;74174;52.224;6.878;2023-12-22T00:16:41;12.88;;;1.38;;
84082;SDS011;74174;52.224;6.878;2023-12-22T00:19:06;12.68;;;1.40;;
84082;SDS011;74174;52.224;6.878;2023-12-22T00:21:31;11.48;;;0.70;;
84082;SDS011;74174;52.224;6.878;2023-12-22T00:23:57;9.00;;;1.20;;
84082;SDS011;74174;52.224;6.878;2023-12-22T00:26:23;10.50;;;0.80;;
84082;SDS011;74174;52.224;6.878;2023-12-22T00:28:48;12.60;;;2.30;;
84082;SDS011;74174;52.224;6.878;2023-12-22T00:31:13;12.30;;;0.95;;
84082;SDS011;74174;52.224;6.878;2023-12-22T00:33:39;11.05;;;0.75;;
84082;SDS011;74174;52.224;6.878;2023-12-22T00:36:04;16.42;;;1.75;;
84082;SDS011;74174;52.224;6.878;2023-12-22T00:38:30;13.57;;;1.17;;
84082;SDS011;74174;52.224;6.878;2023-12-22T00:40:56;11.93;;;0.60;;
84082;SDS011;74174;52.224;6.878;2023-12-22T00:43:21;16.63;;;1.02;;
84082;SDS011;74174;52.224;6.878;2023-12-22T00:45:47;10.57;;;1.17;;
84082;SDS011;74174;52.224;6.878;2023-12-22T00:48:12;8.73;;;1.38;;
84082;SDS011;74174;52.224;6.878;2023-12-22T00:50:37;13.38;;;2.33;;
84082;SDS011;74174;52.224;6.878;2023-12-22T00:53:03;8.15;;;0.75;;
84082;SDS011;74174;52.224;6.878;2023-12-22T00:55:28;12.25;;;0.93;;
84082;SDS011;74174;52.224;6.878;2023-12-22T00:57:53;14.63;;;1.38;;
84082;SDS011;74174;52.224;6.878;2023-12-22T01:00:19;12.10;;;1.05;;
84082;SDS011;74174;52.224;6.878;2023-12-22T01:02:44;12.98;;;0.95;;
84082;SDS011;74174;52.224;6.878;2023-12-22T01:05:10;10.45;;;1.15;;
84082;SDS011;74174;52.224;6.878;2023-12-22T01:07:36;8.10;;;0.73;;
84082;SDS011;74174;52.224;6.878;2023-12-22T01:10:01;12.65;;;1.17;;
84082;SDS011;74174;52.224;6.878;2023-12-22T01:12:28;11.75;;;0.90;;
84082;SDS011;74174;52.224;6.878;2023-12-22T01:14:55;14.32;;;1.08;;
84082;SDS011;74174;52.224;6.878;2023-12-22T01:17:20;25.80;;;1.35;;
84082;SDS011;74174;52.224;6.878;2023-12-22T01:19:46;12.00;;;1.13;;
84082;SDS011;74174;52.224;6.878;2023-12-22T01:22:13;6.13;;;0.57;;
84082;SDS011;74174;52.224;6.878;2023-12-22T01:24:38;5.38;;;1.30;;
84082;SDS011;74174;52.224;6.878;2023-12-22T01:27:06;11.10;;;0.85;;
84082;SDS011;74174;52.224;6.878;2023-12-22T01:29:31;10.85;;;0.73;;
84082;SDS011;74174;52.224;6.878;2023-12-22T01:31:57;11.75;;;1.02;;
84082;SDS011;74174;52.224;6.878;2023-12-22T01:34:22;9.20;;;0.60;;
84082;SDS011;74174;52.224;6.878;2023-12-22T01:36:48;9.77;;;1.20;;
84082;SDS011;74174;52.224;6.878;2023-12-22T01:39:14;9.75;;;1.33;;
84082;SDS011;74174;52.224;6.878;2023-12-22T01:41:40;10.50;;;2.03;;
84082;SDS011;74174;52.224;6.878;2023-12-22T01:44:06;9.98;;;0.88;;
84082;SDS011;74174;52.224;6.878;2023-12-22T01:46:31;8.00;;;0.63;;
84082;SDS011;74174;52.224;6.878;2023-12-22T01:48:57;10.10;;;0.90;;
84082;SDS011;74174;52.224;6.878;2023-12-22T01:51:26;7.75;;;1.40;;
84082;SDS011;74174;52.224;6.878;2023-12-22T01:53:53;9.63;;;1.02;;
84082;SDS011;74174;52.224;6.878;2023-12-22T01:56:19;7.72;;;0.98;;
84082;SDS011;74174;52.224;6.878;2023-12-22T01:58:45;9.23;;;1.13;;
84082;SDS011;74174;52.224;6.878;2023-12-22T02:01:10;10.35;;;0.55;;
84082;SDS011;74174;52.224;6.878;2023-12-22T02:03:36;20.92;;;1.77;;
84082;SDS011;74174;52.224;6.878;2023-12-22T02:06:04;9.70;;;0.30;;
84082;SDS011;74174;52.224;6.878;2023-12-22T02:08:31;8.68;;;0.57;;
84082;SDS011;74174;52.224;6.878;2023-12-22T02:10:58;9.57;;;1.08;;
84082;SDS011;74174;52.224;6.878;2023-12-22T02:13:23;14.07;;;1.67;;
84082;SDS011;74174;52.224;6.878;2023-12-22T02:15:51;12.93;;;1.08;;
84082;SDS011;74174;52.224;6.878;2023-12-22T02:18:26;10.43;;;1.20;;
84082;SDS011;74174;52.224;6.878;2023-12-22T02:20:58;5.57;;;0.82;;
84082;SDS011;74174;52.224;6.878;2023-12-22T02:23:23;9.15;;;1.27;;
84082;SDS011;74174;52.224;6.878;2023-12-22T02:25:49;7.35;;;0.60;;
84082;SDS011;74174;52.224;6.878;2023-12-22T02:30:49;5.15;;;0.40;;
84082;SDS011;74174;52.224;6.878;2023-12-22T02:33:29;8.43;;;0.70;;
84082;SDS011;74174;52.224;6.878;2023-12-22T02:35:58;8.65;;;0.70;;
84082;SDS011;74174;52.224;6.878;2023-12-22T02:38:28;5.05;;;0.30;;
84082;SDS011;74174;52.224;6.878;2023-12-22T02:40:55;6.82;;;0.82;;
84082;SDS011;74174;52.224;6.878;2023-12-22T02:43:21;9.05;;;1.25;;
84082;SDS011;74174;52.224;6.878;2023-12-22T02:45:50;7.93;;;1.15;;
84082;SDS011;74174;52.224;6.878;2023-12-22T02:48:16;3.20;;;0.40;;
84082;SDS011;74174;52.224;6.878;2023-12-22T02:50:42;5.95;;;1.77;;
84082;SDS011;74174;52.224;6.878;2023-12-22T02:53:08;7.63;;;0.82;;
84082;SDS011;74174;52.224;6.878;2023-12-22T02:55:33;6.22;;;0.52;;
84082;SDS011;74174;52.224;6.878;2023-12-22T02:57:59;5.50;;;0.82;;
84082;SDS011;74174;52.224;6.878;2023-12-22T03:00:24;5.13;;;0.40;;
84082;SDS011;74174;52.224;6.878;2023-12-22T03:02:49;6.00;;;0.50;;
84082;SDS011;74174;52.224;6.878;2023-12-22T03:05:15;7.15;;;0.57;;
84082;SDS011;74174;52.224;6.878;2023-12-22T03:07:40;5.82;;;1.27;;
84082;SDS011;74174;52.224;6.878;2023-12-22T03:10:06;5.25;;;0.57;;
84082;SDS011;74174;52.224;6.878;2023-12-22T03:12:31;4.93;;;0.52;;
84082;SDS011;74174;52.224;6.878;2023-12-22T03:14:57;2.08;;;0.68;;
84082;SDS011;74174;52.224;6.878;2023-12-22T03:17:22;2.40;;;0.68;;
84082;SDS011;74174;52.224;6.878;2023-12-22T03:19:48;3.90;;;0.40;;
84082;SDS011;74174;52.224;6.878;2023-12-22T03:22:13;4.22;;;0.32;;
84082;SDS011;74174;52.224;6.878;2023-12-22T03:24:39;5.32;;;0.75;;
84082;SDS011;74174;52.224;6.878;2023-12-22T03:27:04;5.78;;;0.65;;
84082;SDS011;74174;52.224;6.878;2023-12-22T03:29:29;5.13;;;0.50;;
84082;SDS011;74174;52.224;6.878;2023-12-22T03:31:55;7.72;;;0.60;;
84082;SDS011;74174;52.224;6.878;2023-12-22T03:34:20;5.60;;;0.52;;
84082;SDS011;74174;52.224;6.878;2023-12-22T03:36:46;5.80;;;0.40;;
84082;SDS011;74174;52.224;6.878;2023-12-22T03:39:16;7.40;;;0.60;;
84082;SDS011;74174;52.224;6.878;2023-12-22T03:41:43;6.47;;;1.67;;
84082;SDS011;74174;52.224;6.878;2023-12-22T03:44:09;3.15;;;1.00;;
84082;SDS011;74174;52.224;6.878;2023-12-22T03:46:34;5.57;;;0.63;;
84082;SDS011;74174;52.224;6.878;2023-12-22T03:48:59;6.57;;;0.50;;
84082;SDS011;74174;52.224;6.878;2023-12-22T03:51:25;4.68;;;0.40;;
84082;SDS011;74174;52.224;6.878;2023-12-22T03:53:50;1.20;;;0.47;;
84082;SDS011;74174;52.224;6.878;2023-12-22T03:56:17;3.70;;;0.75;;
84082;SDS011;74174;52.224;6.878;2023-12-22T03:58:43;8.15;;;0.73;;
84082;SDS011;74174;52.224;6.878;2023-12-22T04:01:09;13.75;;;0.85;;
84082;SDS011;74174;52.224;6.878;2023-12-22T04:03:38;5.93;;;0.93;;
84082;SDS011;74174;52.224;6.878;2023-12-22T04:06:05;7.07;;;0.60;;
84082;SDS011;74174;52.224;6.878;2023-12-22T04:08:31;8.35;;;1.52;;
84082;SDS011;74174;52.224;6.878;2023-12-22T04:10:57;2.83;;;0.50;;
84082;SDS011;74174;52.224;6.878;2023-12-22T04:13:22;7.47;;;0.70;;
84082;SDS011;74174;52.224;6.878;2023-12-22T04:15:47;4.53;;;0.57;;
84082;SDS011;74174;52.224;6.878;2023-12-22T04:18:13;7.00;;;0.95;;
84082;SDS011;74174;52.224;6.878;2023-12-22T04:20:38;7.57;;;1.05;;
84082;SDS011;74174;52.224;6.878;2023-12-22T04:23:04;8.00;;;0.60;;
84082;SDS011;74174;52.224;6.878;2023-12-22T04:25:30;4.93;;;0.85;;
84082;SDS011;74174;52.224;6.878;2023-12-22T04:27:55;8.35;;;0.80;;
84082;SDS011;74174;52.224;6.878;2023-12-22T04:30:20;8.07;;;0.68;;
84082;SDS011;74174;52.224;6.878;2023-12-22T04:32:46;5.03;;;0.45;;
84082;SDS011;74174;52.224;6.878;2023-12-22T04:35:11;8.50;;;0.70;;
84082;SDS011;74174;52.224;6.878;2023-12-22T04:37:36;16.25;;;1.25;;
84082;SDS011;74174;52.224;6.878;2023-12-22T04:40:02;7.22;;;0.80;;
84082;SDS011;74174;52.224;6.878;2023-12-22T04:42:28;9.32;;;1.13;;
84082;SDS011;74174;52.224;6.878;2023-12-22T04:44:54;2.55;;;0.68;;
84082;SDS011;74174;52.224;6.878;2023-12-22T04:47:25;8.57;;;0.80;;
84082;SDS011;74174;52.224;6.878;2023-12-22T04:49:51;5.82;;;1.65;;
84082;SDS011;74174;52.224;6.878;2023-12-22T04:52:16;7.10;;;1.02;;
84082;SDS011;74174;52.224;6.878;2023-12-22T04:54:41;8.57;;;0.80;;
84082;SDS011;74174;52.224;6.878;2023-12-22T04:57:08;5.70;;;0.70;;
84082;SDS011;74174;52.224;6.878;2023-12-22T04:59:33;10.35;;;1.33;;
84082;SDS011;74174;52.224;6.878;2023-12-22T05:01:59;7.35;;;0.82;;
84082;SDS011;74174;52.224;6.878;2023-12-22T05:04:24;7.25;;;0.60;;
84082;SDS011;74174;52.224;6.878;2023-12-22T05:06:50;8.23;;;0.70;;
84082;SDS011;74174;52.224;6.878;2023-12-22T05:09:16;8.93;;;1.33;;
84082;SDS011;74174;52.224;6.878;2023-12-22T05:11:42;6.72;;;1.00;;
84082;SDS011;74174;52.224;6.878;2023-12-22T05:14:09;13.73;;;1.23;;
84082;SDS011;74174;52.224;6.878;2023-12-22T05:16:34;8.00;;;0.75;;
84082;SDS011;74174;52.224;6.878;2023-12-22T05:19:00;9.25;;;1.42;;
84082;SDS011;74174;52.224;6.878;2023-12-22T05:21:25;8.65;;;0.60;;
84082;SDS011;74174;52.224;6.878;2023-12-22T05:23:53;13.05;;;0.98;;
84082;SDS011;74174;52.224;6.878;2023-12-22T05:26:19;5.70;;;0.80;;
84082;SDS011;74174;52.224;6.878;2023-12-22T05:28:46;11.20;;;1.27;;
84082;SDS011;74174;52.224;6.878;2023-12-22T05:31:11;7.68;;;0.80;;
84082;SDS011;74174;52.224;6.878;2023-12-22T05:33:37;12.65;;;1.33;;
84082;SDS011;74174;52.224;6.878;2023-12-22T05:36:02;10.43;;;0.95;;
84082;SDS011;74174;52.224;6.878;2023-12-22T05:38:28;9.60;;;0.68;;
84082;SDS011;74174;52.224;6.878;2023-12-22T05:40:54;9.77;;;1.10;;
84082;SDS011;74174;52.224;6.878;2023-12-22T05:43:20;10.40;;;0.73;;
84082;SDS011;74174;52.224;6.878;2023-12-22T05:45:46;9.75;;;1.13;;
84082;SDS011;74174;52.224;6.878;2023-12-22T05:48:11;7.90;;;1.08;;
84082;SDS011;74174;52.224;6.878;2023-12-22T05:50:36;12.32;;;1.13;;
84082;SDS011;74174;52.224;6.878;2023-12-22T05:53:02;8.35;;;0.93;;
84082;SDS011;74174;52.224;6.878;2023-12-22T05:55:27;10.93;;;1.25;;
84082;SDS011;74174;52.224;6.878;2023-12-22T05:57:54;7.25;;;0.98;;
84082;SDS011;74174;52.224;6.878;2023-12-22T06:00:21;5.85;;;1.15;;
84082;SDS011;74174;52.224;6.878;2023-12-22T06:02:47;13.10;;;1.02;;
84082;SDS011;74174;52.224;6.878;2023-12-22T06:05:12;9.95;;;1.40;;
84082;SDS011;74174;52.224;6.878;2023-12-22T06:07:38;9.68;;;0.65;;
84082;SDS011;74174;52.224;6.878;2023-12-22T06:10:04;8.07;;;1.02;;
84082;SDS011;74174;52.224;6.878;2023-12-22T06:12:30;11.63;;;0.93;;
84082;SDS011;74174;52.224;6.878;2023-12-22T06:14:56;9.55;;;1.88;;
84082;SDS011;74174;52.224;6.878;2023-12-22T06:17:21;13.05;;;1.20;;
84082;SDS011;74174;52.224;6.878;2023-12-22T06:19:46;12.95;;;0.82;;
84082;SDS011;74174;52.224;6.878;2023-12-22T06:22:12;13.80;;;1.65;;
84082;SDS011;74174;52.224;6.878;2023-12-22T06:24:37;13.57;;;1.33;;
84082;SDS011;74174;52.224;6.878;2023-12-22T06:27:03;10.00;;;0.88;;
84082;SDS011;74174;52.224;6.878;2023-12-22T06:29:28;6.28;;;0.70;;
84082;SDS011;74174;52.224;6.878;2023-12-22T06:31:55;6.13;;;0.82;;
84082;SDS011;74174;52.224;6.878;2023-12-22T06:34:21;12.13;;;1.92;;
84082;SDS011;74174;52.224;6.878;2023-12-22T06:36:47;16.45;;;1.15;;
84082;SDS011;74174;52.224;6.878;2023-12-22T06:39:12;10.30;;;0.57;;
84082;SDS011;74174;52.224;6.878;2023-12-22T06:41:37;14.13;;;1.35;;
84082;SDS011;74174;52.224;6.878;2023-12-22T06:44:03;9.93;;;1.00;;
84082;SDS011;74174;52.224;6.878;2023-12-22T06:46:28;11.82;;;0.95;;
84082;SDS011;74174;52.224;6.878;2023-12-22T06:48:56;11.82;;;0.82;;
84082;SDS011;74174;52.224;6.878;2023-12-22T06:54:07;8.02;;;1.25;;
84082;SDS011;74174;52.224;6.878;2023-12-22T06:56:34;9.85;;;1.42;;
84082;SDS011;74174;52.224;6.878;2023-12-22T06:59:00;9.90;;;1.70;;
84082;SDS011;74174;52.224;6.878;2023-12-22T07:01:28;8.35;;;1.27;;
84082;SDS011;74174;52.224;6.878;2023-12-22T07:03:57;15.63;;;1.05;;
84082;SDS011;74174;52.224;6.878;2023-12-22T07:06:25;17.67;;;1.30;;
84082;SDS011;74174;52.224;6.878;2023-12-22T07:11:37;12.30;;;0.82;;
84082;SDS011;74174;52.224;6.878;2023-12-22T07:14:03;13.40;;;2.03;;
84082;SDS011;74174;52.224;6.878;2023-12-22T07:16:30;15.80;;;1.88;;
84082;SDS011;74174;52.224;6.878;2023-12-22T07:18:55;6.50;;;1.05;;
84082;SDS011;74174;52.224;6.878;2023-12-22T07:21:21;12.82;;;1.27;;
84082;SDS011;74174;52.224;6.878;2023-12-22T07:23:46;12.60;;;1.17;;
84082;SDS011;74174;52.224;6.878;2023-12-22T07:26:12;8.65;;;1.58;;
84082;SDS011;74174;52.224;6.878;2023-12-22T07:28:37;10.13;;;1.30;;
84082;SDS011;74174;52.224;6.878;2023-12-22T07:31:03;6.95;;;0.60;;
84082;SDS011;74174;52.224;6.878;2023-12-22T07:33:28;5.68;;;0.52;;
84082;SDS011;74174;52.224;6.878;2023-12-22T07:35:53;7.50;;;0.60;;
84082;SDS011;74174;52.224;6.878;2023-12-22T07:38:20;7.20;;;0.90;;
84082;SDS011;74174;52.224;6.878;2023-12-22T07:40:45;7.20;;;0.63;;
84082;SDS011;74174;52.224;6.878;2023-12-22T07:43:11;8.93;;;0.73;;
84082;SDS011;74174;52.224;6.878;2023-12-22T07:45:36;8.65;;;0.90;;
84082;SDS011;74174;52.224;6.878;2023-12-22T07:48:02;6.70;;;0.63;;
84082;SDS011;74174;52.224;6.878;2023-12-22T07:50:28;7.93;;;1.08;;
84082;SDS011;74174;52.224;6.878;2023-12-22T07:52:54;6.45;;;0.70;;
84082;SDS011;74174;52.224;6.878;2023-12-22T07:55:19;9.43;;;1.35;;
84082;SDS011;74174;52.224;6.878;2023-12-22T07:57:44;5.95;;;0.75;;
84082;SDS011;74174;52.224;6.878;2023-12-22T08:00:10;6.68;;;0.47;;
84082;SDS011;74174;52.224;6.878;2023-12-22T08:02:37;4.68;;;0.82;;
84082;SDS011;74174;52.224;6.878;2023-12-22T08:05:04;8.13;;;0.90;;
84082;SDS011;74174;52.224;6.878;2023-12-22T08:07:30;8.80;;;0.93;;
84082;SDS011;74174;52.224;6.878;2023-12-22T08:09:57;8.20;;;1.80;;
84082;SDS011;74174;52.224;6.878;2023-12-22T08:12:23;8.55;;;0.70;;
84082;SDS011;74174;52.224;6.878;2023-12-22T08:14:49;8.80;;;1.90;;
84082;SDS011;74174;52.224;6.878;2023-12-22T08:17:17;6.18;;;0.75;;
84082;SDS011;74174;52.224;6.878;2023-12-22T08:19:42;3.20;;;0.75;;
84082;SDS011;74174;52.224;6.878;2023-12-22T08:22:09;6.70;;;0.82;;
84082;SDS011;74174;52.224;6.878;2023-12-22T08:24:35;6.32;;;1.20;;
84082;SDS011;74174;52.224;6.878;2023-12-22T08:27:01;3.33;;;0.75;;
84082;SDS011;74174;52.224;6.878;2023-12-22T08:29:27;3.80;;;0.35;;
84082;SDS011;74174;52.224;6.878;2023-12-22T08:31:53;7.85;;;0.50;;
84082;SDS011;74174;52.224;6.878;2023-12-22T08:34:18;3.50;;;0.40;;
84082;SDS011;74174;52.224;6.878;2023-12-22T08:36:44;8.50;;;0.60;;
84082;SDS011;74174;52.224;6.878;2023-12-22T08:39:09;4.88;;;0.60;;
84082;SDS011;74174;52.224;6.878;2023-12-22T08:41:36;10.43;;;0.80;;
84082;SDS011;74174;52.224;6.878;2023-12-22T08:44:02;7.10;;;0.73;;
84082;SDS011;74174;52.224;6.878;2023-12-22T08:46:29;4.82;;;0.70;;
84082;SDS011;74174;52.224;6.878;2023-12-22T08:48:57;2.35;;;0.35;;
84082;SDS011;74174;52.224;6.878;2023-12-22T08:51:24;2.70;;;0.60;;
84082;SDS011;74174;52.224;6.878;2023-12-22T08:53:53;6.60;;;0.30;;
84082;SDS011;74174;52.224;6.878;2023-12-22T08:56:20;4.45;;;0.40;;
84082;SDS011;74174;52.224;6.878;2023-12-22T08:58:46;4.00;;;0.30;;
84082;SDS011;74174;52.224;6.878;2023-12-22T09:01:15;5.28;;;0.82;;
84082;SDS011;74174;52.224;6.878;2023-12-22T09:03:41;3.33;;;0.60;;
84082;SDS011;74174;52.224;6.878;2023-12-22T09:06:11;9.40;;;0.60;;
84082;SDS011;74174;52.224;6.878;2023-12-22T09:08:42;7.57;;;0.90;;
84082;SDS011;74174;52.224;6.878;2023-12-22T09:11:11;2.92;;;0.60;;
84082;SDS011;74174;52.224;6.878;2023-12-22T09:13:38;2.97;;;0.65;;
84082;SDS011;74174;52.224;6.878;2023-12-22T09:16:04;3.90;;;0.55;;
84082;SDS011;74174;52.224;6.878;2023-12-22T09:18:30;6.88;;;0.47;;
84082;SDS011;74174;52.224;6.878;2023-12-22T09:20:57;3.03;;;0.57;;
84082;SDS011;74174;52.224;6.878;2023-12-22T09:23:23;7.32;;;0.75;;
84082;SDS011;74174;52.224;6.878;2023-12-22T09:25:49;4.47;;;0.57;;
84082;SDS011;74174;52.224;6.878;2023-12-22T09:28:14;7.72;;;1.00;;
84082;SDS011;74174;52.224;6.878;2023-12-22T09:30:40;11.63;;;0.60;;
84082;SDS011;74174;52.224;6.878;2023-12-22T09:33:05;9.05;;;1.05;;
84082;SDS011;74174;52.224;6.878;2023-12-22T09:35:30;4.60;;;1.02;;
84082;SDS011;74174;52.224;6.878;2023-12-22T09:37:56;5.93;;;1.05;;
84082;SDS011;74174;52.224;6.878;2023-12-22T09:40:21;8.57;;;1.08;;
84082;SDS011;74174;52.224;6.878;2023-12-22T09:42:49;10.65;;;1.38;;
84082;SDS011;74174;52.224;6.878;2023-12-22T09:45:19;6.57;;;0.88;;
84082;SDS011;74174;52.224;6.878;2023-12-22T09:47:46;10.77;;;1.15;;
84082;SDS011;74174;52.224;6.878;2023-12-22T09:50:13;7.70;;;1.30;;
84082;SDS011;74174;52.224;6.878;2023-12-22T09:52:42;8.52;;;1.88;;
84082;SDS011;74174;52.224;6.878;2023-12-22T09:55:09;11.63;;;1.15;;
84082;SDS011;74174;52.224;6.878;2023-12-22T09:57:35;11.05;;;1.13;;
84082;SDS011;74174;52.224;6.878;2023-12-22T10:00:03;7.53;;;1.35;;
84082;SDS011;74174;52.224;6.878;2023-12-22T10:02:31;13.65;;;1.83;;
84082;SDS011;74174;52.224;6.878;2023-12-22T10:05:01;11.77;;;0.93;;
84082;SDS011;74174;52.224;6.878;2023-12-22T10:07:28;7.82;;;1.20;;
84082;SDS011;74174;52.224;6.878;2023-12-22T10:09:58;7.47;;;1.23;;
84082;SDS011;74174;52.224;6.878;2023-12-22T10:12:24;10.07;;;2.17;;
84082;SDS011;74174;52.224;6.878;2023-12-22T10:14:52;10.38;;;1.67;;
84082;SDS011;74174;52.224;6.878;2023-12-22T10:17:18;8.20;;;1.48;;
84082;SDS011;74174;52.224;6.878;2023-12-22T10:19:45;14.00;;;1.65;;
84082;SDS011;74174;52.224;6.878;2023-12-22T10:22:12;5.82;;;0.77;;
84082;SDS011;74174;52.224;6.878;2023-12-22T10:24:42;5.68;;;0.77;;
84082;SDS011;74174;52.224;6.878;2023-12-22T10:27:09;6.53;;;0.82;;
84082;SDS011;74174;52.224;6.878;2023-12-22T10:29:38;5.88;;;0.50;;
84082;SDS011;74174;52.224;6.878;2023-12-22T10:32:07;4.00;;;0.88;;
84082;SDS011;74174;52.224;6.878;2023-12-22T10:34:34;6.10;;;0.50;;
84082;SDS011;74174;52.224;6.878;2023-12-22T10:36:59;3.85;;;1.25;;
84082;SDS011;74174;52.224;6.878;2023-12-22T10:39:29;4.95;;;0.65;;
84082;SDS011;74174;52.224;6.878;2023-12-22T10:41:56;4.80;;;0.60;;
84082;SDS011;74174;52.224;6.878;2023-12-22T10:44:24;4.75;;;0.70;;
84082;SDS011;74174;52.224;6.878;2023-12-22T10:46:50;3.40;;;0.60;;
84082;SDS011;74174;52.224;6.878;2023-12-22T10:49:16;5.20;;;0.60;;
84082;SDS011;74174;52.224;6.878;2023-12-22T10:51:41;2.30;;;0.50;;
84082;SDS011;74174;52.224;6.878;2023-12-22T10:54:07;3.97;;;0.57;;
84082;SDS011;74174;52.224;6.878;2023-12-22T10:56:33;6.88;;;1.40;;
84082;SDS011;74174;52.224;6.878;2023-12-22T10:58:59;3.28;;;1.23;;
84082;SDS011;74174;52.224;6.878;2023-12-22T11:01:28;3.63;;;0.47;;
84082;SDS011;74174;52.224;6.878;2023-12-22T11:03:54;2.80;;;0.50;;
84082;SDS011;74174;52.224;6.878;2023-12-22T11:06:23;7.72;;;0.50;;
84082;SDS011;74174;52.224;6.878;2023-12-22T11:08:51;4.85;;;0.40;;
84082;SDS011;74174;52.224;6.878;2023-12-22T11:11:30;2.58;;;0.70;;
84082;SDS011;74174;52.224;6.878;2023-12-22T11:13:57;1.42;;;0.40;;
84082;SDS011;74174;52.224;6.878;2023-12-22T11:16:25;1.30;;;0.30;;
84082;SDS011;74174;52.224;6.878;2023-12-22T11:18:53;2.92;;;0.60;;
84082;SDS011;74174;52.224;6.878;2023-12-22T11:21:23;4.47;;;0.60;;
84082;SDS011;74174;52.224;6.878;2023-12-22T11:23:49;3.05;;;0.60;;
84082;SDS011;74174;52.224;6.878;2023-12-22T11:26:18;4.93;;;0.63;;
84082;SDS011;74174;52.224;6.878;2023-12-22T11:28:47;1.38;;;0.20;;
84082;SDS011;74174;52.224;6.878;2023-12-22T11:31:14;1.33;;;0.38;;
84082;SDS011;74174;52.224;6.878;2023-12-22T11:33:50;2.17;;;0.30;;
84082;SDS011;74174;52.224;6.878;2023-12-22T11:36:16;1.40;;;0.32;;
84082;SDS011;74174;52.224;6.878;2023-12-22T11:38:46;1.95;;;0.73;;
84082;SDS011;74174;52.224;6.878;2023-12-22T11:41:19;2.58;;;0.40;;
84082;SDS011;74174;52.224;6.878;2023-12-22T11:43:48;2.45;;;0.20;;
84082;SDS011;74174;52.224;6.878;2023-12-22T11:46:16;3.50;;;0.73;;
84082;SDS011;74174;52.224;6.878;2023-12-22T11:48:49;2.75;;;0.98;;
84082;SDS011;74174;52.224;6.878;2023-12-22T11:51:16;1.80;;;0.65;;
84082;SDS011;74174;52.224;6.878;2023-12-22T11:53:43;4.70;;;0.75;;
84082;SDS011;74174;52.224;6.878;2023-12-22T11:56:15;2.80;;;0.88;;
84082;SDS011;74174;52.224;6.878;2023-12-22T11:58:43;3.25;;;0.30;;
84082;SDS011;74174;52.224;6.878;2023-12-22T12:01:17;1.05;;;0.30;;
84082;SDS011;74174;52.224;6.878;2023-12-22T12:03:53;1.38;;;0.50;;
84082;SDS011;74174;52.224;6.878;2023-12-22T12:06:23;1.80;;;0.30;;
84082;SDS011;74174;52.224;6.878;2023-12-22T12:12:11;2.25;;;0.85;;
84082;SDS011;74174;52.224;6.878;2023-12-22T12:14:37;1.80;;;0.22;;
84082;SDS011;74174;52.224;6.878;2023-12-22T12:17:08;3.30;;;0.30;;
84082;SDS011;74174;52.224;6.878;2023-12-22T12:19:38;1.42;;;0.30;;
84082;SDS011;74174;52.224;6.878;2023-12-22T12:22:08;2.92;;;1.40;;
84082;SDS011;74174;52.224;6.878;2023-12-22T12:24:34;2.50;;;0.30;;
84082;SDS011;74174;52.224;6.878;2023-12-22T12:27:03;4.63;;;0.60;;
84082;SDS011;74174;52.224;6.878;2023-12-22T12:29:32;1.85;;;0.50;;
84082;SDS011;74174;52.224;6.878;2023-12-22T12:32:05;2.95;;;0.60;;
84082;SDS011;74174;52.224;6.878;2023-12-22T12:34:31;3.58;;;0.90;;
84082;SDS011;74174;52.224;6.878;2023-12-22T12:36:57;2.50;;;0.30;;
84082;SDS011;74174;52.224;6.878;2023-12-22T12:39:23;5.43;;;1.00;;
84082;SDS011;74174;52.224;6.878;2023-12-22T12:44:21;37.00;;;11.23;;
84082;SDS011;74174;52.224;6.878;2023-12-22T12:46:49;24.02;;;6.32;;
84082;SDS011;74174;52.224;6.878;2023-12-22T12:49:14;8.63;;;1.58;;
84082;SDS011;74174;52.224;6.878;2023-12-22T12:51:41;4.10;;;0.60;;
84082;SDS011;74174;52.224;6.878;2023-12-22T12:54:08;9.05;;;1.75;;
84082;SDS011;74174;52.224;6.878;2023-12-22T12:56:38;1.88;;;0.50;;
84082;SDS011;74174;52.224;6.878;2023-12-22T12:59:11;7.82;;;1.65;;
84082;SDS011;74174;52.224;6.878;2023-12-22T13:01:44;1.58;;;0.40;;
84082;SDS011;74174;52.224;6.878;2023-12-22T13:04:13;4.18;;;0.60;;
84082;SDS011;74174;52.224;6.878;2023-12-22T13:06:57;2.08;;;0.40;;
84082;SDS011;74174;52.224;6.878;2023-12-22T13:09:30;3.22;;;0.20;;
84082;SDS011;74174;52.224;6.878;2023-12-22T13:11:58;2.30;;;0.40;;
84082;SDS011;74174;52.224;6.878;2023-12-22T13:14:24;1.60;;;0.50;;
84082;SDS011;74174;52.224;6.878;2023-12-22T13:16:50;2.80;;;0.40;;
84082;SDS011;74174;52.224;6.878;2023-12-22T13:19:17;2.25;;;0.40;;
84082;SDS011;74174;52.224;6.878;2023-12-22T13:21:44;1.52;;;0.43;;
84082;SDS011;74174;52.224;6.878;2023-12-22T13:24:11;2.22;;;0.55;;
84082;SDS011;74174;52.224;6.878;2023-12-22T13:26:38;2.80;;;0.80;;
84082;SDS011;74174;52.224;6.878;2023-12-22T13:29:05;2.90;;;0.32;;
84082;SDS011;74174;52.224;6.878;2023-12-22T13:31:31;2.90;;;0.80;;
84082;SDS011;74174;52.224;6.878;2023-12-22T13:33:58;4.75;;;0.47;;
84082;SDS011;74174;52.224;6.878;2023-12-22T13:36:26;4.72;;;0.70;;
84082;SDS011;74174;52.224;6.878;2023-12-22T13:38:52;2.33;;;0.70;;
84082;SDS011;74174;52.224;6.878;2023-12-22T13:41:17;4.32;;;0.30;;
84082;SDS011;74174;52.224;6.878;2023-12-22T13:43:44;4.65;;;0.40;;
84082;SDS011;74174;52.224;6.878;2023-12-22T13:46:16;2.90;;;0.40;;
84082;SDS011;74174;52.224;6.878;2023-12-22T13:48:42;2.97;;;0.40;;
84082;SDS011;74174;52.224;6.878;2023-12-22T13:51:08;1.48;;;0.30;;
84082;SDS011;74174;52.224;6.878;2023-12-22T13:53:35;3.35;;;0.30;;
84082;SDS011;74174;52.224;6.878;2023-12-22T13:56:01;1.58;;;0.50;;
84082;SDS011;74174;52.224;6.878;2023-12-22T13:58:26;2.00;;;0.30;;
84082;SDS011;74174;52.224;6.878;2023-12-22T14:00:53;1.13;;;0.43;;
84082;SDS011;74174;52.224;6.878;2023-12-22T14:03:18;2.90;;;0.45;;
84082;SDS011;74174;52.224;6.878;2023-12-22T14:05:49;2.13;;;0.85;;
84082;SDS011;74174;52.224;6.878;2023-12-22T14:08:17;3.17;;;0.63;;
84082;SDS011;74174;52.224;6.878;2023-12-22T14:10:45;5.43;;;0.60;;
84082;SDS011;74174;52.224;6.878;2023-12-22T14:13:12;2.25;;;0.57;;
84082;SDS011;74174;52.224;6.878;2023-12-22T14:15:41;3.83;;;0.70;;
84082;SDS011;74174;52.224;6.878;2023-12-22T14:18:07;1.35;;;0.35;;
84082;SDS011;74174;52.224;6.878;2023-12-22T14:20:32;2.38;;;0.22;;
84082;SDS011;74174;52.224;6.878;2023-12-22T14:22:59;1.67;;;0.50;;
84082;SDS011;74174;52.224;6.878;2023-12-22T14:25:24;3.05;;;0.90;;
84082;SDS011;74174;52.224;6.878;2023-12-22T14:27:52;1.70;;;0.35;;
84082;SDS011;74174;52.224;6.878;2023-12-22T14:30:22;3.05;;;0.30;;
84082;SDS011;74174;52.224;6.878;2023-12-22T14:32:47;2.72;;;0.32;;
84082;SDS011;74174;52.224;6.878;2023-12-22T14:35:13;1.33;;;0.40;;
84082;SDS011;74174;52.224;6.878;2023-12-22T14:37:38;2.65;;;0.75;;
84082;SDS011;74174;52.224;6.878;2023-12-22T14:40:04;4.18;;;0.32;;
84082;SDS011;74174;52.224;6.878;2023-12-22T14:42:31;2.00;;;0.38;;
84082;SDS011;74174;52.224;6.878;2023-12-22T14:44:57;3.00;;;0.52;;
84082;SDS011;74174;52.224;6.878;2023-12-22T14:47:22;3.00;;;0.50;;
84082;SDS011;74174;52.224;6.878;2023-12-22T14:49:48;6.60;;;0.80;;
84082;SDS011;74174;52.224;6.878;2023-12-22T14:52:13;3.85;;;0.73;;
84082;SDS011;74174;52.224;6.878;2023-12-22T14:54:39;1.88;;;0.75;;
84082;SDS011;74174;52.224;6.878;2023-12-22T14:57:05;1.65;;;0.50;;